Time;durP1;ratioP1;P1;durP2;ratioP2;P2;SDS_P1;SDS_P2;PMS_P1;PMS_P2;Temp;Humidity;BMP_temperature;BMP_pressure;BME280_temperature;BME280_humidity;BME280_pressure;Samples;Min_cycle;Max_cycle;Signal;HPM_P1;HPM_P2
2022/11/13 00:00:17;;;;;;;3.53;2.42;;;;;;;21.66;60.95;96290.34;5050768;28;20036;-65
2022/11/13 00:02:43;;;;;;;3.22;2.25;;;;;;;21.59;60.55;96279.09;5051310;28;20472;-64
2022/11/13 00:05:08;;;;;;;3.22;2.10;;;;;;;20.55;61.24;96133.09;5054990;28;20102;-65
2022/11/13 00:07:34;;;;;;;2.90;2.13;;;;;;;21.65;61.00;96298.97;5026309;28;20040;-59
2022/11/13 00:09:59;;;;;;;3.53;2.35;;;;;;;21.65;61.07;96293.53;5056083;28;20106;-59
2022/11/13 00:12:24;;;;;;;3.58;2.45;;;;;;;20.65;60.45;96136.47;5038072;28;20032;-62
2022/11/13 00:14:50;;;;;;;2.90;2.45;;;;;;;21.58;60.63;96283.00;5039525;28;20029;-64
2022/11/13 00:17:15;;;;;;;3.30;2.13;;;;;;;20.66;60.51;96133.28;5056431;28;20462;-60
2022/11/13 00:19:41;;;;;;;2.60;2.03;;;;;;;21.62;60.94;96302.63;5055127;28;20147;-64
2022/11/13 00:22:06;;;;;;;3.47;2.40;;;;;;;21.60;61.27;96280.59;5054962;28;20452;-65
2022/11/13 00:24:32;;;;;;;3.25;2.60;;;;;;;21.63;60.96;96287.81;5036338;28;20032;-61
2022/11/13 00:26:57;;;;;;;2.85;2.30;;;;;;;20.86;61.35;96165.28;5056291;28;20378;-63
2022/11/13 00:29:23;;;;;;;2.83;2.08;;;;;;;21.23;60.68;96214.16;5054709;28;20484;-66
2022/11/13 00:31:48;;;;;;;2.65;2.05;;;;;;;21.60;60.56;96275.91;5055842;28;20507;-64
2022/11/13 00:34:13;;;;;;;3.03;2.30;;;;;;;21.61;60.82;96271.19;5056519;28;20052;-59
2022/11/13 00:36:39;;;;;;;3.15;2.33;;;;;;;21.37;61.13;96240.59;5054285;28;20040;-62
2022/11/13 00:39:04;;;;;;;2.45;1.95;;;;;;;21.33;60.26;96229.16;5043537;28;20504;-62
2022/11/13 00:41:30;;;;;;;3.20;2.15;;;;;;;21.61;60.11;96273.91;5022513;28;20791;-63
2022/11/13 00:43:55;;;;;;;3.67;2.38;;;;;;;21.51;60.47;96267.81;5033332;28;20425;-64
2022/11/13 00:46:20;;;;;;;3.30;2.33;;;;;;;21.58;61.01;96266.69;5055239;28;20048;-62
2022/11/13 00:48:46;;;;;;;3.38;2.40;;;;;;;20.12;60.23;96035.31;5036653;28;20033;-63
2022/11/13 00:51:11;;;;;;;3.00;2.33;;;;;;;21.49;60.57;96269.50;5054889;28;20032;-65
2022/11/13 00:53:37;;;;;;;2.72;2.13;;;;;;;21.09;60.33;96192.38;5033681;28;20095;-62
2022/11/13 00:56:02;;;;;;;2.67;1.90;;;;;;;21.35;60.39;96232.16;5044951;28;20040;-66
2022/11/13 00:58:28;;;;;;;2.75;2.47;;;;;;;20.87;60.16;96164.09;5059028;28;20549;-63
2022/11/13 01:00:53;;;;;;;3.45;2.35;;;;;;;21.59;60.10;96262.78;5045499;28;20156;-65
2022/11/13 01:03:19;;;;;;;3.03;2.38;;;;;;;21.59;60.28;96268.22;5058239;28;20750;-62
2022/11/13 01:05:45;;;;;;;2.80;2.20;;;;;;;21.57;60.05;96265.22;5058327;28;20036;-63
2022/11/13 01:08:11;;;;;;;2.65;2.08;;;;;;;21.51;59.85;96250.78;5047730;28;20049;-64
2022/11/13 01:10:42;;;;;;;3.13;2.33;;;;;;;19.78;59.78;95988.22;5052534;28;20718;-65
2022/11/13 01:13:07;;;;;;;3.15;2.30;;;;;;;21.58;60.49;96266.69;5046476;28;20353;-62
2022/11/13 01:15:33;;;;;;;2.85;2.05;;;;;;;21.29;60.06;96223.16;5040658;28;20047;-60
2022/11/13 01:17:58;;;;;;;3.25;2.35;;;;;;;21.37;60.57;96235.16;5059396;28;20500;-63
2022/11/13 01:20:24;;;;;;;3.50;2.30;;;;;;;21.58;60.11;96266.69;5058205;28;20453;-62
2022/11/13 01:22:49;;;;;;;2.72;1.88;;;;;;;21.54;60.09;96266.16;5053609;28;20044;-61
2022/11/13 01:25:16;;;;;;;2.67;2.03;;;;;;;21.56;59.83;96263.72;5035560;28;20052;-61
2022/11/13 01:27:41;;;;;;;3.05;2.28;;;;;;;20.56;59.89;96112.13;5033611;28;20119;-59
2022/11/13 01:30:07;;;;;;;2.63;2.00;;;;;;;21.54;60.31;96260.72;5053870;28;20036;-62
2022/11/13 01:32:33;;;;;;;2.42;2.00;;;;;;;20.69;60.06;96131.66;5050653;28;20036;-59
2022/11/13 01:34:58;;;;;;;3.30;2.45;;;;;;;21.55;59.95;96256.75;5055151;28;20040;-63
2022/11/13 01:37:23;;;;;;;2.60;2.03;;;;;;;21.55;59.89;96256.75;5045734;28;20094;-60
2022/11/13 01:39:49;;;;;;;2.67;2.00;;;;;;;21.27;60.10;96206.59;5036361;28;20037;-66
2022/11/13 01:42:14;;;;;;;3.00;2.08;;;;;;;21.50;60.07;96249.28;5042364;28;20040;-66
2022/11/13 01:45:01;;;;;;;2.53;1.90;;;;;;;21.43;59.93;96255.03;5054512;28;21053;-60
2022/11/13 01:47:26;;;;;;;2.97;2.10;;;;;;;21.43;59.76;96233.28;5035981;28;20144;-60
2022/11/13 01:49:53;;;;;;;2.92;2.00;;;;;;;20.95;60.01;96181.50;5037112;28;20048;-61
2022/11/13 01:52:28;;;;;;;2.83;2.08;;;;;;;21.52;59.33;96235.94;5018411;28;20056;-64
2022/11/13 01:55:07;;;;;;;2.58;1.98;;;;;;;21.47;59.61;96228.47;5037835;28;20113;-65
2022/11/13 01:57:33;;;;;;;2.80;2.10;;;;;;;21.45;59.93;96236.31;5022749;28;20111;-64
2022/11/13 02:00:01;;;;;;;2.50;1.83;;;;;;;21.50;59.37;96241.13;5056112;28;20160;-63
2022/11/13 02:02:26;;;;;;;2.88;2.05;;;;;;;21.51;59.37;96239.91;5036336;28;21143;-61
2022/11/13 02:04:52;;;;;;;2.50;2.20;;;;;;;21.29;59.75;96200.69;5056359;28;20409;-64
2022/11/13 02:07:18;;;;;;;2.85;2.05;;;;;;;20.60;59.65;96096.41;5034227;28;20068;-65
2022/11/13 02:09:50;;;;;;;3.10;2.22;;;;;;;21.55;59.40;96245.88;5010812;28;20458;-64
2022/11/13 02:12:22;;;;;;;2.83;2.00;;;;;;;20.76;58.98;96115.75;5041838;28;20616;-63
2022/11/13 02:14:49;;;;;;;2.53;2.05;;;;;;;20.51;59.20;96088.34;5038512;28;20561;-62
2022/11/13 02:17:26;;;;;;;2.42;1.95;;;;;;;21.52;59.59;96241.38;5020292;28;20044;-64
2022/11/13 02:19:53;;;;;;;3.03;2.17;;;;;;;21.51;59.63;96251.53;5055679;28;20055;-61
2022/11/13 02:22:36;;;;;;;2.67;2.10;;;;;;;21.31;59.47;96215.28;5019354;28;20122;-64
2022/11/13 02:25:02;;;;;;;2.70;2.22;;;;;;;21.36;59.08;96222.81;5055692;28;20626;-62
2022/11/13 02:27:37;;;;;;;2.90;2.30;;;;;;;21.51;59.86;96251.53;5055640;28;20024;-64
2022/11/13 02:30:17;;;;;;;3.33;2.10;;;;;;;21.51;58.98;96256.22;5038410;28;20041;-63
2022/11/13 02:32:47;;;;;;;3.33;1.92;;;;;;;21.53;59.25;96234.75;5054404;28;20528;-63
2022/11/13 02:35:14;;;;;;;2.75;2.25;;;;;;;21.50;59.58;96238.41;5054971;28;20068;-64
2022/11/13 02:37:39;;;;;;;2.88;2.30;;;;;;;21.34;59.16;96219.78;5036612;28;20378;-64
2022/11/13 02:40:05;;;;;;;2.35;1.98;;;;;;;21.41;58.87;96219.44;5055032;28;20044;-63
2022/11/13 02:42:31;;;;;;;3.53;2.30;;;;;;;21.45;58.61;96226.22;5032499;28;20306;-62
2022/11/13 02:44:56;;;;;;;3.03;2.22;;;;;;;21.49;58.78;96242.31;5055473;28;20619;-62
2022/11/13 02:47:22;;;;;;;2.72;1.95;;;;;;;21.51;59.05;96229.03;5047397;28;20060;-64
2022/11/13 02:49:47;;;;;;;2.50;1.98;;;;;;;21.25;58.49;96200.84;5055145;28;20033;-66
2022/11/13 02:52:12;;;;;;;2.30;1.95;;;;;;;21.47;58.79;96234.63;5054619;28;20485;-62
2022/11/13 02:54:38;;;;;;;2.42;1.73;;;;;;;21.42;58.93;96237.97;5036636;28;20028;-63
2022/11/13 02:57:03;;;;;;;2.97;2.17;;;;;;;21.29;58.82;96212.28;5055153;28;20082;-63
2022/11/13 02:59:29;;;;;;;2.55;1.92;;;;;;;21.17;58.32;96194.28;5053472;28;20524;-61
2022/11/13 03:01:54;;;;;;;3.30;2.40;;;;;;;21.45;58.83;96242.50;5054619;28;20432;-64
2022/11/13 03:04:20;;;;;;;2.83;2.33;;;;;;;21.46;58.52;96254.13;5036571;28;20504;-61
2022/11/13 03:06:45;;;;;;;2.45;1.88;;;;;;;21.48;58.75;96252.44;5050760;28;20033;-64
2022/11/13 03:09:10;;;;;;;2.78;1.88;;;;;;;21.48;58.59;96257.88;5052445;28;20471;-64
2022/11/13 03:11:36;;;;;;;2.85;2.20;;;;;;;21.47;58.65;96247.47;5055031;28;20528;-60
2022/11/13 03:14:01;;;;;;;2.60;1.90;;;;;;;21.47;58.90;96250.19;5053560;28;20436;-61
2022/11/13 03:16:27;;;;;;;2.33;1.80;;;;;;;21.43;58.81;96244.94;5054812;28;20511;-64
2022/11/13 03:18:54;;;;;;;2.88;1.88;;;;;;;20.64;58.61;96124.09;5053925;28;20032;-66
2022/11/13 03:21:19;;;;;;;2.75;2.00;;;;;;;21.45;59.25;96244.47;5034773;28;20037;-60
2022/11/13 03:23:45;;;;;;;2.75;2.05;;;;;;;21.46;59.11;96243.25;5046154;28;20059;-64
2022/11/13 03:26:12;;;;;;;2.47;1.92;;;;;;;21.36;58.83;96233.69;5035403;28;20048;-64
2022/11/13 03:28:37;;;;;;;3.17;2.30;;;;;;;21.41;58.29;96235.72;5054128;28;20426;-65
2022/11/13 03:31:03;;;;;;;3.42;2.40;;;;;;;21.44;58.26;96251.09;5051622;28;20494;-64
2022/11/13 03:33:29;;;;;;;3.17;2.00;;;;;;;21.46;58.46;96248.69;5023849;28;20070;-64
2022/11/13 03:35:54;;;;;;;2.58;1.95;;;;;;;21.42;58.50;96248.84;5054347;28;20025;-64
2022/11/13 03:38:20;;;;;;;2.88;2.10;;;;;;;21.43;58.39;96250.38;5033101;28;20401;-60
2022/11/13 03:40:45;;;;;;;2.75;1.98;;;;;;;20.73;58.34;96143.06;5042518;28;20085;-63
2022/11/13 03:43:11;;;;;;;2.50;2.10;;;;;;;21.42;58.43;96242.69;5053447;28;20166;-63
2022/11/13 03:45:36;;;;;;;2.58;1.95;;;;;;;20.56;57.88;96117.53;5035392;28;20055;-61
2022/11/13 03:48:02;;;;;;;2.28;2.03;;;;;;;21.37;58.52;96240.59;5053541;28;20041;-61
2022/11/13 03:50:27;;;;;;;2.85;2.10;;;;;;;21.22;58.76;96234.38;5052139;28;20051;-66
2022/11/13 03:52:52;;;;;;;3.13;2.33;;;;;;;21.33;58.32;96261.78;5045039;28;20048;-66
2022/11/13 03:55:18;;;;;;;2.83;2.10;;;;;;;21.43;58.24;96249.59;5048868;28;20040;-62
2022/11/13 03:57:45;;;;;;;2.72;2.13;;;;;;;21.42;58.26;96254.28;5053335;28;20052;-63
2022/11/13 04:00:11;;;;;;;2.88;2.40;;;;;;;21.20;58.10;96220.53;5053204;28;20688;-60
2022/11/13 04:02:37;;;;;;;3.13;2.00;;;;;;;21.39;58.04;96246.31;5053137;28;20626;-61
2022/11/13 04:05:02;;;;;;;2.38;1.92;;;;;;;21.39;58.53;96246.31;5052834;28;20063;-65
2022/11/13 04:07:28;;;;;;;3.15;2.45;;;;;;;21.39;57.80;96249.03;5050833;28;20357;-60
2022/11/13 04:09:53;;;;;;;2.70;2.13;;;;;;;21.40;58.23;96250.53;5053676;28;20456;-64
2022/11/13 04:12:19;;;;;;;2.45;2.00;;;;;;;21.41;58.10;96252.03;5034275;28;20493;-60
2022/11/13 04:14:44;;;;;;;2.90;2.10;;;;;;;21.42;58.23;96248.13;5052819;28;20036;-64
2022/11/13 04:17:09;;;;;;;3.33;2.42;;;;;;;21.39;58.29;96251.75;5052939;28;20523;-64
2022/11/13 04:19:35;;;;;;;2.72;2.13;;;;;;;21.40;57.91;96261.41;5005867;28;20453;-62
2022/11/13 04:22:00;;;;;;;3.10;2.28;;;;;;;21.39;58.40;96243.59;5051527;28;20055;-66
2022/11/13 04:24:26;;;;;;;2.85;2.17;;;;;;;21.39;57.81;96240.88;5052344;28;20024;-61
2022/11/13 04:26:51;;;;;;;2.60;2.00;;;;;;;21.36;57.99;96244.53;5034782;28;20046;-64
2022/11/13 04:29:16;;;;;;;3.17;2.33;;;;;;;20.51;57.49;96110.06;5052988;28;20527;-60
2022/11/13 04:31:42;;;;;;;2.50;2.08;;;;;;;21.38;57.93;96252.97;5033605;28;20735;-63
2022/11/13 04:34:07;;;;;;;3.00;2.20;;;;;;;21.29;57.83;96239.47;5050654;28;20045;-66
2022/11/13 04:36:33;;;;;;;3.13;2.38;;;;;;;21.02;57.68;96188.06;5051125;28;20028;-61
2022/11/13 04:38:58;;;;;;;2.50;2.08;;;;;;;21.18;57.92;96222.19;5043530;28;20158;-64
2022/11/13 04:44:08;;;;;;;2.60;2.10;;;;;;;21.34;57.67;96246.94;5039538;28;20488;-60
2022/11/13 04:46:33;;;;;;;2.60;2.35;;;;;;;20.42;57.71;96117.50;5051477;28;20048;-64
2022/11/13 04:48:58;;;;;;;2.50;2.00;;;;;;;21.14;57.61;96199.91;5049932;28;20044;-61
2022/11/13 04:51:24;;;;;;;3.85;2.20;;;;;;;21.33;58.81;96240.03;5047008;28;20480;-61
2022/11/13 04:53:49;;;;;;;3.00;2.40;;;;;;;21.35;57.70;96242.28;5018928;28;20445;-64
2022/11/13 04:56:15;;;;;;;2.45;1.98;;;;;;;21.36;58.01;96241.81;5048985;28;20528;-60
2022/11/13 04:58:40;;;;;;;2.95;2.17;;;;;;;21.35;57.86;96243.03;5043432;28;21107;-65
2022/11/13 05:01:06;;;;;;;2.58;2.10;;;;;;;19.52;56.76;95962.81;5030472;28;20053;-64
2022/11/13 05:03:31;;;;;;;3.30;2.38;;;;;;;21.50;57.42;96249.28;5042818;28;20032;-60
2022/11/13 05:06:07;;;;;;;6.80;5.85;;;;;;;20.22;51.31;96126.25;5050723;28;20086;-60
2022/11/13 05:08:32;;;;;;;9.07;6.50;;;;;;;20.01;54.59;96257.38;5051525;28;20497;-65
2022/11/13 05:10:58;;;;;;;5.18;3.65;;;;;;;19.78;55.96;96102.78;5031339;28;20047;-60
2022/11/13 05:13:24;;;;;;;5.38;4.28;;;;;;;21.14;54.73;96254.97;5044872;28;20044;-62
2022/11/13 05:15:49;;;;;;;4.68;3.63;;;;;;;20.50;53.81;96119.41;5048198;28;20550;-66
2022/11/13 05:18:15;;;;;;;5.40;3.95;;;;;;;21.43;53.50;96246.88;5050926;28;20024;-63
2022/11/13 05:20:40;;;;;;;4.57;3.72;;;;;;;20.30;53.35;96067.72;5031879;28;20488;-65
2022/11/13 05:23:06;;;;;;;5.63;3.90;;;;;;;21.56;53.43;96252.84;5047228;28;20962;-63
2022/11/13 05:25:31;;;;;;;4.43;3.40;;;;;;;21.60;53.25;96247.97;5049667;28;20177;-60
2022/11/13 05:27:57;;;;;;;4.43;3.78;;;;;;;21.51;53.26;96245.34;5043426;28;20044;-58
2022/11/13 05:30:23;;;;;;;4.47;3.53;;;;;;;21.62;52.98;96250.97;5013006;28;20059;-62
2022/11/13 05:32:48;;;;;;;4.07;3.35;;;;;;;21.65;53.10;96261.66;5044398;28;20045;-63
2022/11/13 05:35:14;;;;;;;4.72;3.47;;;;;;;21.68;52.92;96249.09;5048410;28;20068;-63
2022/11/13 05:37:39;;;;;;;4.90;3.28;;;;;;;20.95;52.64;96138.06;5029001;28;20725;-63
2022/11/13 05:40:05;;;;;;;4.40;3.22;;;;;;;21.75;52.65;96265.03;5050680;28;20106;-60
2022/11/13 05:42:30;;;;;;;4.03;3.10;;;;;;;20.62;52.38;96093.97;5049106;28;20543;-61
2022/11/13 05:44:56;;;;;;;4.35;3.50;;;;;;;21.67;52.11;96258.47;5053440;28;20048;-60
2022/11/13 05:47:21;;;;;;;4.85;3.63;;;;;;;20.04;52.26;96012.47;5011607;28;1198160;-62
2022/11/13 05:49:47;;;;;;;3.85;3.20;;;;;;;21.81;52.37;96274.03;5031203;28;20037;-59
2022/11/13 05:52:12;;;;;;;4.65;3.60;;;;;;;21.33;52.13;96199.28;5050064;28;20463;-64
2022/11/13 05:54:38;;;;;;;4.32;3.42;;;;;;;21.82;52.12;96270.09;5032098;28;20116;-60
2022/11/13 05:57:03;;;;;;;4.78;3.30;;;;;;;21.83;52.11;96277.78;5051848;28;20089;-65
2022/11/13 05:59:29;;;;;;;4.90;3.17;;;;;;;21.84;51.77;96281.25;5050548;28;20040;-63
2022/11/13 06:01:54;;;;;;;4.45;3.20;;;;;;;21.88;51.75;96279.09;5031642;28;20394;-63
2022/11/13 06:04:19;;;;;;;4.55;3.42;;;;;;;21.89;51.78;96291.50;5051870;28;20045;-67
2022/11/13 06:06:45;;;;;;;4.93;3.92;;;;;;;20.98;51.41;96133.22;5054882;28;20040;-60
2022/11/13 06:09:13;;;;;;;4.97;3.88;;;;;;;21.99;51.46;96312.69;5055857;28;20504;-62
2022/11/13 06:11:38;;;;;;;5.00;4.13;;;;;;;22.02;51.05;96290.72;5053145;28;20543;-63
2022/11/13 06:14:04;;;;;;;6.10;4.60;;;;;;;22.04;50.75;96282.84;5030345;28;20040;-65
2022/11/13 06:16:35;;;;;;;5.93;4.53;;;;;;;22.06;50.63;96285.09;5045144;28;20059;-66
2022/11/13 06:19:02;;;;;;;6.13;4.18;;;;;;;22.15;50.35;96283.03;5054943;28;20040;-66
2022/11/13 06:21:31;;;;;;;4.88;4.13;;;;;;;22.19;50.27;96289.03;5037318;28;20056;-63
2022/11/13 06:23:57;;;;;;;5.55;4.30;;;;;;;22.13;50.03;96252.81;5054144;28;20044;-61
2022/11/13 06:26:24;;;;;;;54.08;39.80;;;;;;;22.33;50.06;96277.44;5053444;28;21519;-66
2022/11/13 06:28:49;;;;;;;62.85;40.90;;;;;;;22.53;50.29;96285.66;5053639;28;20043;-63
2022/11/13 06:31:17;;;;;;;41.45;27.63;;;;;;;22.43;50.07;96282.28;5034790;28;20048;-63
2022/11/13 06:33:42;;;;;;;31.08;20.42;;;;;;;22.56;49.72;96290.13;5042879;28;20032;-66
2022/11/13 06:36:15;;;;;;;25.40;19.13;;;;;;;22.57;49.65;96294.34;5055307;28;20036;-65
2022/11/13 06:38:41;;;;;;;25.48;18.65;;;;;;;21.61;48.94;96146.16;5032875;28;21028;-63
2022/11/13 06:41:07;;;;;;;23.92;18.08;;;;;;;22.71;49.01;96290.84;5049084;28;20048;-61
2022/11/13 06:43:33;;;;;;;26.75;18.23;;;;;;;22.63;48.88;96267.94;5031478;28;22136;-60
2022/11/13 06:46:01;;;;;;;24.05;17.15;;;;;;;22.92;48.56;96285.69;5042809;28;20048;-65
2022/11/13 06:48:27;;;;;;;22.13;16.58;;;;;;;21.95;48.44;96133.34;5032518;28;20044;-62
2022/11/13 06:50:52;;;;;;;22.02;15.85;;;;;;;23.00;48.46;96292.28;5046900;28;20028;-63
2022/11/13 06:53:18;;;;;;;21.40;16.10;;;;;;;23.04;48.38;96287.38;5050543;28;20513;-63
2022/11/13 06:55:44;;;;;;;19.85;15.50;;;;;;;22.94;47.99;96310.53;5051664;28;20195;-65
2022/11/13 06:58:09;;;;;;;21.73;15.18;;;;;;;23.10;48.17;96288.19;5051818;28;20154;-63
2022/11/13 07:00:35;;;;;;;17.85;13.93;;;;;;;23.08;47.91;96285.19;5031243;28;20031;-61
2022/11/13 07:03:00;;;;;;;19.83;14.10;;;;;;;22.12;47.36;96118.03;5047149;28;20024;-67
2022/11/13 07:05:26;;;;;;;19.13;14.07;;;;;;;23.26;47.15;96293.09;5050897;28;20107;-63
2022/11/13 07:07:51;;;;;;;17.27;13.65;;;;;;;23.21;47.73;96285.59;5048432;28;20074;-64
2022/11/13 07:10:17;;;;;;;17.95;13.70;;;;;;;23.25;47.30;96264.34;5052068;28;20135;-61
2022/11/13 07:12:42;;;;;;;17.65;13.23;;;;;;;23.29;47.48;96302.28;5051087;28;20131;-69
2022/11/13 07:15:08;;;;;;;19.27;13.15;;;;;;;23.13;46.94;96268.16;5032629;28;20020;-65
2022/11/13 07:17:33;;;;;;;17.52;12.48;;;;;;;23.07;46.94;96252.97;5035170;28;20762;-66
2022/11/13 07:19:59;;;;;;;17.95;13.25;;;;;;;23.34;47.18;96294.19;5046456;28;20045;-62
2022/11/13 07:22:24;;;;;;;16.05;12.98;;;;;;;22.47;47.28;96146.00;5046526;28;20057;-65
2022/11/13 07:24:50;;;;;;;16.50;12.35;;;;;;;23.39;46.67;96296.22;5045187;28;20052;-63
2022/11/13 07:27:15;;;;;;;16.15;12.18;;;;;;;23.44;46.61;96282.66;5054033;28;20036;-65
2022/11/13 07:29:41;;;;;;;16.25;12.88;;;;;;;23.31;46.88;96283.50;5017045;28;20105;-68
2022/11/13 07:32:06;;;;;;;15.63;12.07;;;;;;;23.57;46.58;96290.47;5050136;28;20127;-60
2022/11/13 07:34:31;;;;;;;15.63;11.57;;;;;;;23.35;47.11;96257.53;5006066;28;20049;-65
2022/11/13 07:36:57;;;;;;;15.55;11.65;;;;;;;23.67;46.41;96289.13;5053631;28;20612;-59
2022/11/13 07:39:22;;;;;;;15.05;11.85;;;;;;;23.65;46.61;96297.06;5048985;28;20431;-68
2022/11/13 07:41:48;;;;;;;15.27;11.88;;;;;;;23.57;46.19;96293.19;5034037;28;20037;-69
2022/11/13 07:44:13;;;;;;;16.45;11.30;;;;;;;23.56;45.95;96267.19;5035203;28;20045;-67
2022/11/13 07:46:38;;;;;;;18.67;12.18;;;;;;;23.73;46.13;96290.69;5034276;28;20048;-68
2022/11/13 07:49:04;;;;;;;14.40;10.75;;;;;;;23.70;46.41;96299.09;5051918;28;20059;-60
2022/11/13 07:51:29;;;;;;;17.63;11.23;;;;;;;23.08;45.66;96181.66;5051399;28;20385;-65
2022/11/13 07:53:55;;;;;;;16.77;11.55;;;;;;;23.90;45.44;96303.28;5034147;28;20444;-64
2022/11/13 07:56:22;;;;;;;16.10;11.65;;;;;;;22.86;45.99;96155.38;5030676;28;20044;-69
2022/11/13 07:58:47;;;;;;;17.02;11.25;;;;;;;23.81;45.84;96271.91;5051921;28;20540;-68
2022/11/13 08:01:13;;;;;;;17.95;11.13;;;;;;;23.76;46.10;96318.97;5036921;28;20044;-61
2022/11/13 08:03:38;;;;;;;19.85;11.02;;;;;;;23.74;46.00;96288.72;5032016;28;20056;-68
2022/11/13 08:06:05;;;;;;;20.65;11.38;;;;;;;23.75;45.71;96295.66;5033011;28;20025;-66
2022/11/13 08:08:31;;;;;;;19.05;10.60;;;;;;;23.92;45.47;96322.63;5052574;28;20675;-62
2022/11/13 08:10:57;;;;;;;18.23;10.60;;;;;;;23.63;45.99;96256.59;5054255;28;20060;-64
2022/11/13 08:13:22;;;;;;;20.17;10.75;;;;;;;23.79;45.71;96296.19;5052729;28;20048;-68
2022/11/13 08:15:47;;;;;;;17.83;10.63;;;;;;;23.79;45.45;96247.09;5050252;28;20036;-68
2022/11/13 08:18:13;;;;;;;22.27;11.73;;;;;;;23.12;45.68;96160.41;5051766;28;20512;-64
2022/11/13 08:20:38;;;;;;;20.63;11.65;;;;;;;23.96;45.54;96312.25;5051520;28;20041;-69
2022/11/13 08:23:04;;;;;;;21.75;11.40;;;;;;;22.85;45.20;96113.03;5029539;28;20053;-61
2022/11/13 08:25:30;;;;;;;18.65;10.02;;;;;;;24.12;45.13;96276.16;5030916;28;20738;-66
2022/11/13 08:27:55;;;;;;;21.30;10.65;;;;;;;24.01;45.15;96265.16;5040811;28;20041;-66
2022/11/13 08:30:21;;;;;;;23.23;10.52;;;;;;;24.22;45.07;96288.41;5032888;28;20052;-66
2022/11/13 08:32:46;;;;;;;23.98;11.20;;;;;;;23.41;44.70;96162.94;5052727;28;20072;-64
2022/11/13 08:35:12;;;;;;;21.92;11.02;;;;;;;24.36;45.00;96290.28;5033284;28;20071;-66
2022/11/13 08:37:37;;;;;;;26.15;10.73;;;;;;;23.37;45.25;96167.09;5025402;28;20063;-65
2022/11/13 08:40:03;;;;;;;25.58;11.40;;;;;;;24.37;44.85;96292.53;5039416;28;20398;-69
2022/11/13 08:42:28;;;;;;;28.08;12.05;;;;;;;23.57;44.31;96152.19;5046086;28;20488;-69
2022/11/13 08:44:54;;;;;;;22.23;11.55;;;;;;;23.59;44.41;96211.69;5050168;28;20028;-65
2022/11/13 08:47:19;;;;;;;23.85;11.43;;;;;;;24.12;44.97;96298.00;5048740;28;20064;-65
2022/11/13 08:49:45;;;;;;;22.42;10.35;;;;;;;24.35;44.14;96299.72;5030679;28;20044;-63
2022/11/13 08:52:10;;;;;;;29.17;11.30;;;;;;;24.27;44.36;96276.78;5050597;28;20138;-67
2022/11/13 08:54:36;;;;;;;28.23;11.52;;;;;;;24.33;44.47;96307.63;5030408;28;20420;-69
2022/11/13 08:57:01;;;;;;;26.52;10.98;;;;;;;24.33;44.06;96312.38;5031844;28;20500;-65
2022/11/13 08:59:27;;;;;;;25.95;11.70;;;;;;;24.33;44.28;96313.09;5029684;28;20041;-62
2022/11/13 09:01:58;;;;;;;27.85;11.20;;;;;;;24.33;43.87;96329.47;5050899;28;20051;-65
2022/11/13 09:04:24;;;;;;;29.80;11.05;;;;;;;24.34;44.20;96311.13;5044441;28;20080;-67
2022/11/13 09:06:50;;;;;;;26.55;10.40;;;;;;;24.42;44.41;96312.94;5050024;28;20037;-69
2022/11/13 09:09:15;;;;;;;24.80;10.88;;;;;;;24.09;43.85;96271.66;5051725;28;20033;-66
2022/11/13 09:11:41;;;;;;;22.80;11.07;;;;;;;24.37;44.30;96313.63;5050309;28;20432;-67
2022/11/13 09:14:06;;;;;;;30.42;11.13;;;;;;;24.28;44.51;96316.50;5016191;28;20095;-62
2022/11/13 09:16:32;;;;;;;32.63;11.85;;;;;;;24.17;44.14;96305.50;5054257;28;20036;-60
2022/11/13 09:18:57;;;;;;;26.77;10.80;;;;;;;24.45;44.05;96314.69;5056776;28;20071;-63
2022/11/13 09:21:23;;;;;;;25.20;10.93;;;;;;;24.10;43.85;96262.25;5053108;28;20037;-66
2022/11/13 09:23:49;;;;;;;30.42;11.85;;;;;;;24.37;43.74;96305.44;5056531;28;20032;-69
2022/11/13 09:26:15;;;;;;;34.25;11.70;;;;;;;24.57;44.16;96305.34;5035858;28;20465;-68
2022/11/13 09:28:40;;;;;;;32.85;10.85;;;;;;;24.48;44.04;96308.25;5054618;28;20052;-65
2022/11/13 09:31:06;;;;;;;32.38;11.40;;;;;;;23.53;44.64;96197.25;5056665;28;20144;-72
2022/11/13 09:33:32;;;;;;;28.80;10.77;;;;;;;24.53;44.12;96304.84;5045077;28;20479;-66
2022/11/13 09:35:57;;;;;;;32.42;10.98;;;;;;;24.35;44.14;96305.94;5052263;28;20119;-66
2022/11/13 09:38:23;;;;;;;32.45;11.07;;;;;;;24.70;43.94;96298.25;5037680;28;20508;-63
2022/11/13 09:40:57;;;;;;;32.40;11.88;;;;;;;24.89;43.17;96300.09;5052567;28;20055;-67
2022/11/13 09:43:26;;;;;;;30.38;11.13;;;;;;;25.00;43.10;96289.25;5013588;28;20139;-61
2022/11/13 09:45:55;;;;;;;34.05;12.57;;;;;;;24.73;43.25;96269.22;5056913;28;20052;-64
2022/11/13 09:48:31;;;;;;;35.27;11.77;;;;;;;25.00;42.98;96283.78;5057462;28;20397;-65
2022/11/13 09:50:58;;;;;;;30.70;11.55;;;;;;;24.93;43.28;96283.47;5055365;28;20294;-65
2022/11/13 09:53:24;;;;;;;35.05;11.93;;;;;;;25.18;42.44;96277.91;5055100;28;20044;-67
2022/11/13 09:56:02;;;;;;;32.30;11.77;;;;;;;24.99;42.94;96248.75;5054193;28;20051;-68
2022/11/13 09:58:36;;;;;;;33.75;11.75;;;;;;;25.05;43.01;96252.25;5052187;28;20052;-69
2022/11/13 10:01:01;;;;;;;33.65;10.95;;;;;;;25.18;42.77;96277.91;5037957;28;20044;-66
2022/11/13 10:03:39;;;;;;;34.80;12.07;;;;;;;23.31;43.05;96006.22;5036756;28;20043;-63
2022/11/13 10:06:11;;;;;;;35.90;12.25;;;;;;;25.17;42.82;96270.97;5022009;28;20028;-66
2022/11/13 10:08:56;;;;;;;33.75;11.52;;;;;;;25.23;42.94;96271.75;5050473;28;20147;-61
2022/11/13 10:11:43;;;;;;;34.38;11.70;;;;;;;25.29;43.06;96271.75;5008755;28;20435;-61
2022/11/13 10:14:24;;;;;;;40.00;12.45;;;;;;;25.13;43.01;96215.75;5048983;28;20445;-66
2022/11/13 10:17:00;;;;;;;35.80;11.82;;;;;;;24.78;42.84;96178.31;5010756;28;20501;-62
2022/11/13 10:19:47;;;;;;;35.13;11.20;;;;;;;25.19;42.97;96262.28;5039351;28;20116;-63
2022/11/13 10:22:22;;;;;;;30.90;11.73;;;;;;;24.95;42.71;96262.63;5027224;28;20037;-65
2022/11/13 10:24:49;;;;;;;39.75;11.80;;;;;;;24.59;43.44;96245.53;5007683;28;20087;-67
2022/11/13 10:27:15;;;;;;;32.92;11.98;;;;;;;24.85;42.66;96261.31;5026299;28;20097;-64
2022/11/13 10:29:40;;;;;;;32.55;12.05;;;;;;;24.92;42.85;96258.13;5043413;28;20040;-61
2022/11/13 10:32:27;;;;;;;30.92;11.88;;;;;;;24.97;42.78;96256.66;5051881;28;20572;-67
2022/11/13 10:35:20;;;;;;;31.50;11.88;;;;;;;24.90;42.62;96257.13;5053555;28;20521;-68
2022/11/13 10:38:04;;;;;;;26.05;11.98;;;;;;;24.91;42.61;96251.16;5030678;28;20093;-65
2022/11/13 10:40:32;;;;;;;26.02;13.50;;;;;;;23.28;42.05;96257.19;5046251;28;20465;-66
2022/11/13 10:43:21;;;;;;;30.05;12.10;;;;;;;24.00;43.89;96249.28;5054261;28;20048;-62
2022/11/13 10:45:57;;;;;;;31.15;12.13;;;;;;;24.62;42.66;96230.88;5036353;28;20051;-63
2022/11/13 10:48:34;;;;;;;28.80;11.65;;;;;;;24.39;42.49;96177.38;5055084;28;20035;-66
2022/11/13 10:51:05;;;;;;;38.78;17.30;;;;;;;23.23;42.04;95991.56;5043800;28;20045;-62
2022/11/13 10:53:39;;;;;;;34.22;14.88;;;;;;;24.94;42.48;96241.97;5050212;28;20032;-68
2022/11/13 10:56:34;;;;;;;34.70;15.65;;;;;;;25.16;43.00;96231.19;5030942;28;20639;-67
2022/11/13 10:59:02;;;;;;;42.17;17.48;;;;;;;25.06;42.79;96232.63;5042185;28;20407;-66
2022/11/13 11:01:28;;;;;;;41.42;15.98;;;;;;;25.01;42.80;96241.56;5034723;28;20052;-66
2022/11/13 11:03:53;;;;;;;36.05;15.65;;;;;;;25.11;42.99;96234.66;5021438;28;20127;-62
2022/11/13 11:06:18;;;;;;;38.85;15.30;;;;;;;24.88;43.40;96249.41;5034865;28;20035;-64
2022/11/13 11:08:44;;;;;;;34.72;14.20;;;;;;;24.17;42.88;96109.00;5032502;28;20054;-67
2022/11/13 11:14:15;;;;;;;30.45;14.15;;;;;;;24.74;43.13;96213.31;5052665;28;20102;-63
2022/11/13 11:16:41;;;;;;;32.28;14.77;;;;;;;24.80;43.34;96225.03;5016350;28;20101;-66
2022/11/13 11:19:09;;;;;;;33.58;14.73;;;;;;;24.87;43.12;96226.06;5053756;28;20445;-62
2022/11/13 11:21:35;;;;;;;32.90;13.90;;;;;;;24.95;42.80;96227.09;5018364;28;20464;-65
2022/11/13 11:24:05;;;;;;;32.08;13.07;;;;;;;24.97;42.45;96223.88;5016450;28;20098;-61
2022/11/13 11:26:37;;;;;;;32.17;14.18;;;;;;;24.76;42.66;96219.06;5044241;28;20049;-64
2022/11/13 11:29:15;;;;;;;29.75;13.07;;;;;;;24.80;43.23;96214.09;5036282;28;20098;-62
2022/11/13 11:31:49;;;;;;;29.73;13.25;;;;;;;24.88;42.97;96215.88;5053757;28;20055;-67